sensor_id;sensor_type;location;lat;lon;timestamp;P1;durP1;ratioP1;P2;durP2;ratioP2
46042;SDS011;32533;-33.854;18.542;2022-12-01T00:01:10;4.80;;;1.60;;
46042;SDS011;32533;-33.854;18.542;2022-12-01T00:03:37;5.57;;;1.75;;
46042;SDS011;32533;-33.854;18.542;2022-12-01T00:06:14;4.70;;;2.10;;
46042;SDS011;32533;-33.854;18.542;2022-12-01T00:08:42;4.93;;;2.70;;
46042;SDS011;32533;-33.854;18.542;2022-12-01T00:11:28;5.85;;;1.50;;
46042;SDS011;32533;-33.854;18.542;2022-12-01T00:13:54;5.32;;;1.85;;
46042;SDS011;32533;-33.854;18.542;2022-12-01T00:16:21;6.30;;;2.38;;
46042;SDS011;32533;-33.854;18.542;2022-12-01T00:18:48;4.07;;;1.58;;
46042;SDS011;32533;-33.854;18.542;2022-12-01T00:21:16;5.95;;;1.65;;
46042;SDS011;32533;-33.854;18.542;2022-12-01T00:23:45;4.07;;;1.63;;
46042;SDS011;32533;-33.854;18.542;2022-12-01T00:26:13;4.97;;;1.65;;
46042;SDS011;32533;-33.854;18.542;2022-12-01T00:28:40;3.65;;;1.90;;
46042;SDS011;32533;-33.854;18.542;2022-12-01T00:31:08;6.20;;;1.63;;
46042;SDS011;32533;-33.854;18.542;2022-12-01T00:33:35;7.60;;;1.75;;
46042;SDS011;32533;-33.854;18.542;2022-12-01T00:36:02;7.25;;;1.88;;
46042;SDS011;32533;-33.854;18.542;2022-12-01T00:38:30;4.90;;;1.95;;
46042;SDS011;32533;-33.854;18.542;2022-12-01T00:40:56;5.03;;;1.65;;
46042;SDS011;32533;-33.854;18.542;2022-12-01T00:43:23;4.53;;;1.52;;
46042;SDS011;32533;-33.854;18.542;2022-12-01T00:45:50;7.10;;;2.35;;
46042;SDS011;32533;-33.854;18.542;2022-12-01T00:48:17;6.35;;;1.75;;
46042;SDS011;32533;-33.854;18.542;2022-12-01T00:50:43;7.35;;;2.28;;
46042;SDS011;32533;-33.854;18.542;2022-12-01T00:53:10;4.28;;;1.50;;
46042;SDS011;32533;-33.854;18.542;2022-12-01T00:55:37;13.52;;;4.88;;
46042;SDS011;32533;-33.854;18.542;2022-12-01T00:58:04;5.93;;;1.73;;
46042;SDS011;32533;-33.854;18.542;2022-12-01T01:00:31;5.78;;;2.42;;
46042;SDS011;32533;-33.854;18.542;2022-12-01T01:02:58;4.30;;;1.23;;
46042;SDS011;32533;-33.854;18.542;2022-12-01T01:05:25;6.50;;;1.83;;
46042;SDS011;32533;-33.854;18.542;2022-12-01T01:07:51;7.85;;;2.47;;
46042;SDS011;32533;-33.854;18.542;2022-12-01T01:10:18;5.78;;;2.05;;
46042;SDS011;32533;-33.854;18.542;2022-12-01T01:12:44;3.70;;;1.73;;
46042;SDS011;32533;-33.854;18.542;2022-12-01T01:15:11;8.10;;;2.75;;
46042;SDS011;32533;-33.854;18.542;2022-12-01T01:17:37;9.20;;;3.20;;
46042;SDS011;32533;-33.854;18.542;2022-12-01T01:20:04;8.95;;;2.67;;
46042;SDS011;32533;-33.854;18.542;2022-12-01T01:22:31;7.20;;;2.53;;
46042;SDS011;32533;-33.854;18.542;2022-12-01T01:24:59;9.18;;;3.13;;
46042;SDS011;32533;-33.854;18.542;2022-12-01T01:27:25;7.60;;;2.40;;
46042;SDS011;32533;-33.854;18.542;2022-12-01T01:29:52;8.63;;;3.58;;
46042;SDS011;32533;-33.854;18.542;2022-12-01T01:32:18;10.55;;;3.03;;
46042;SDS011;32533;-33.854;18.542;2022-12-01T01:34:45;9.68;;;2.85;;
46042;SDS011;32533;-33.854;18.542;2022-12-01T01:37:12;6.70;;;2.55;;
46042;SDS011;32533;-33.854;18.542;2022-12-01T01:39:38;7.82;;;3.22;;
46042;SDS011;32533;-33.854;18.542;2022-12-01T01:42:05;6.50;;;2.45;;
46042;SDS011;32533;-33.854;18.542;2022-12-01T01:44:50;14.70;;;3.25;;
46042;SDS011;32533;-33.854;18.542;2022-12-01T01:47:29;10.63;;;2.97;;
46042;SDS011;32533;-33.854;18.542;2022-12-01T01:50:00;7.95;;;2.83;;
46042;SDS011;32533;-33.854;18.542;2022-12-01T01:52:33;6.45;;;2.28;;
46042;SDS011;32533;-33.854;18.542;2022-12-01T01:55:04;7.20;;;2.47;;
46042;SDS011;32533;-33.854;18.542;2022-12-01T01:57:31;8.85;;;3.15;;
46042;SDS011;32533;-33.854;18.542;2022-12-01T02:00:07;4.60;;;2.45;;
46042;SDS011;32533;-33.854;18.542;2022-12-01T02:02:36;7.20;;;2.97;;
46042;SDS011;32533;-33.854;18.542;2022-12-01T02:05:16;9.90;;;2.97;;
46042;SDS011;32533;-33.854;18.542;2022-12-01T02:07:47;6.28;;;2.60;;
46042;SDS011;32533;-33.854;18.542;2022-12-01T02:10:15;9.40;;;2.65;;
46042;SDS011;32533;-33.854;18.542;2022-12-01T02:21:35;8.38;;;2.90;;
46042;SDS011;32533;-33.854;18.542;2022-12-01T02:24:48;10.27;;;3.50;;
46042;SDS011;32533;-33.854;18.542;2022-12-01T02:28:00;4.97;;;2.13;;
46042;SDS011;32533;-33.854;18.542;2022-12-01T02:30:33;8.98;;;2.35;;
46042;SDS011;32533;-33.854;18.542;2022-12-01T02:34:04;6.63;;;3.00;;
46042;SDS011;32533;-33.854;18.542;2022-12-01T02:39:04;10.18;;;2.65;;
46042;SDS011;32533;-33.854;18.542;2022-12-01T02:44:18;10.02;;;2.92;;
46042;SDS011;32533;-33.854;18.542;2022-12-01T02:47:05;15.23;;;3.13;;
46042;SDS011;32533;-33.854;18.542;2022-12-01T02:49:36;10.45;;;3.95;;
46042;SDS011;32533;-33.854;18.542;2022-12-01T02:52:18;8.25;;;3.60;;
46042;SDS011;32533;-33.854;18.542;2022-12-01T02:54:46;8.43;;;3.00;;
46042;SDS011;32533;-33.854;18.542;2022-12-01T02:57:13;10.35;;;3.42;;
46042;SDS011;32533;-33.854;18.542;2022-12-01T02:59:41;15.85;;;5.03;;
46042;SDS011;32533;-33.854;18.542;2022-12-01T03:04:51;9.05;;;3.35;;
46042;SDS011;32533;-33.854;18.542;2022-12-01T03:07:39;7.03;;;3.03;;
46042;SDS011;32533;-33.854;18.542;2022-12-01T03:10:40;7.80;;;3.22;;
46042;SDS011;32533;-33.854;18.542;2022-12-01T03:19:52;9.55;;;3.70;;
46042;SDS011;32533;-33.854;18.542;2022-12-01T03:22:00;5.53;;;3.10;;
46042;SDS011;32533;-33.854;18.542;2022-12-01T03:24:35;7.18;;;2.50;;
46042;SDS011;32533;-33.854;18.542;2022-12-01T03:27:05;7.57;;;2.40;;
46042;SDS011;32533;-33.854;18.542;2022-12-01T03:29:49;6.50;;;3.45;;
46042;SDS011;32533;-33.854;18.542;2022-12-01T03:32:22;4.38;;;2.30;;
46042;SDS011;32533;-33.854;18.542;2022-12-01T03:35:42;8.43;;;3.10;;
46042;SDS011;32533;-33.854;18.542;2022-12-01T03:40:29;8.90;;;4.03;;
46042;SDS011;32533;-33.854;18.542;2022-12-01T03:43:17;7.40;;;2.60;;
46042;SDS011;32533;-33.854;18.542;2022-12-01T03:48:33;17.42;;;10.93;;
46042;SDS011;32533;-33.854;18.542;2022-12-01T03:51:13;16.83;;;13.13;;
46042;SDS011;32533;-33.854;18.542;2022-12-01T03:53:52;15.02;;;10.48;;
46042;SDS011;32533;-33.854;18.542;2022-12-01T03:56:25;13.02;;;4.93;;
46042;SDS011;32533;-33.854;18.542;2022-12-01T03:58:58;12.02;;;4.20;;
46042;SDS011;32533;-33.854;18.542;2022-12-01T04:01:30;15.02;;;3.88;;
46042;SDS011;32533;-33.854;18.542;2022-12-01T04:04:36;12.75;;;3.95;;
46042;SDS011;32533;-33.854;18.542;2022-12-01T04:07:42;11.45;;;3.67;;
46042;SDS011;32533;-33.854;18.542;2022-12-01T04:13:53;16.25;;;7.53;;
46042;SDS011;32533;-33.854;18.542;2022-12-01T04:16:59;18.30;;;11.00;;
46042;SDS011;32533;-33.854;18.542;2022-12-01T04:19:45;11.98;;;6.10;;
46042;SDS011;32533;-33.854;18.542;2022-12-01T04:22:12;12.80;;;5.82;;
46042;SDS011;32533;-33.854;18.542;2022-12-01T04:24:38;11.48;;;5.63;;
46042;SDS011;32533;-33.854;18.542;2022-12-01T04:27:05;15.10;;;6.85;;
46042;SDS011;32533;-33.854;18.542;2022-12-01T04:29:32;15.15;;;6.72;;
46042;SDS011;32533;-33.854;18.542;2022-12-01T04:32:16;8.75;;;5.90;;
46042;SDS011;32533;-33.854;18.542;2022-12-01T04:34:42;11.88;;;5.97;;
46042;SDS011;32533;-33.854;18.542;2022-12-01T04:37:09;10.13;;;5.57;;
46042;SDS011;32533;-33.854;18.542;2022-12-01T04:39:36;13.35;;;4.88;;
46042;SDS011;32533;-33.854;18.542;2022-12-01T04:42:03;11.38;;;5.10;;
46042;SDS011;32533;-33.854;18.542;2022-12-01T04:44:30;7.30;;;5.53;;
46042;SDS011;32533;-33.854;18.542;2022-12-01T04:46:56;11.02;;;3.85;;
46042;SDS011;32533;-33.854;18.542;2022-12-01T04:49:23;11.93;;;4.60;;
46042;SDS011;32533;-33.854;18.542;2022-12-01T04:51:50;8.40;;;4.68;;
46042;SDS011;32533;-33.854;18.542;2022-12-01T04:54:16;10.23;;;3.70;;
46042;SDS011;32533;-33.854;18.542;2022-12-01T04:56:43;10.93;;;4.65;;
46042;SDS011;32533;-33.854;18.542;2022-12-01T04:59:10;7.60;;;3.35;;
46042;SDS011;32533;-33.854;18.542;2022-12-01T05:01:37;11.75;;;3.60;;
46042;SDS011;32533;-33.854;18.542;2022-12-01T05:04:03;6.95;;;3.13;;
46042;SDS011;32533;-33.854;18.542;2022-12-01T05:06:30;11.77;;;4.05;;
46042;SDS011;32533;-33.854;18.542;2022-12-01T05:08:58;12.85;;;3.67;;
46042;SDS011;32533;-33.854;18.542;2022-12-01T05:11:26;9.63;;;4.18;;
46042;SDS011;32533;-33.854;18.542;2022-12-01T05:13:55;7.05;;;3.00;;
46042;SDS011;32533;-33.854;18.542;2022-12-01T05:16:22;7.13;;;2.85;;
46042;SDS011;32533;-33.854;18.542;2022-12-01T05:19:00;15.23;;;3.72;;
46042;SDS011;32533;-33.854;18.542;2022-12-01T05:21:48;22.55;;;7.00;;
46042;SDS011;32533;-33.854;18.542;2022-12-01T05:24:16;9.55;;;3.63;;
46042;SDS011;32533;-33.854;18.542;2022-12-01T05:26:43;10.50;;;3.25;;
46042;SDS011;32533;-33.854;18.542;2022-12-01T05:29:10;12.90;;;3.65;;
46042;SDS011;32533;-33.854;18.542;2022-12-01T05:31:37;9.23;;;3.28;;
46042;SDS011;32533;-33.854;18.542;2022-12-01T05:34:04;11.55;;;3.40;;
46042;SDS011;32533;-33.854;18.542;2022-12-01T05:36:31;9.55;;;3.88;;
46042;SDS011;32533;-33.854;18.542;2022-12-01T05:38:58;13.85;;;5.20;;
46042;SDS011;32533;-33.854;18.542;2022-12-01T05:41:24;10.95;;;3.90;;
46042;SDS011;32533;-33.854;18.542;2022-12-01T05:43:51;11.18;;;4.00;;
46042;SDS011;32533;-33.854;18.542;2022-12-01T05:46:17;13.27;;;4.40;;
46042;SDS011;32533;-33.854;18.542;2022-12-01T05:48:44;9.52;;;3.15;;
46042;SDS011;32533;-33.854;18.542;2022-12-01T05:51:12;11.43;;;3.78;;
46042;SDS011;32533;-33.854;18.542;2022-12-01T05:53:40;6.95;;;2.88;;
46042;SDS011;32533;-33.854;18.542;2022-12-01T05:56:07;9.57;;;3.72;;
46042;SDS011;32533;-33.854;18.542;2022-12-01T05:58:33;8.30;;;3.38;;
46042;SDS011;32533;-33.854;18.542;2022-12-01T06:01:00;7.32;;;3.42;;
46042;SDS011;32533;-33.854;18.542;2022-12-01T06:03:27;7.40;;;3.53;;
46042;SDS011;32533;-33.854;18.542;2022-12-01T06:05:54;34.42;;;7.82;;
46042;SDS011;32533;-33.854;18.542;2022-12-01T06:08:20;10.65;;;3.55;;
46042;SDS011;32533;-33.854;18.542;2022-12-01T06:10:47;8.98;;;3.97;;
46042;SDS011;32533;-33.854;18.542;2022-12-01T06:13:13;11.40;;;3.45;;
46042;SDS011;32533;-33.854;18.542;2022-12-01T06:15:40;10.50;;;3.53;;
46042;SDS011;32533;-33.854;18.542;2022-12-01T06:18:06;8.88;;;3.75;;
46042;SDS011;32533;-33.854;18.542;2022-12-01T06:20:33;23.98;;;6.35;;
46042;SDS011;32533;-33.854;18.542;2022-12-01T06:22:59;14.80;;;4.88;;
46042;SDS011;32533;-33.854;18.542;2022-12-01T06:25:26;12.98;;;4.10;;
46042;SDS011;32533;-33.854;18.542;2022-12-01T06:27:56;14.95;;;4.30;;
46042;SDS011;32533;-33.854;18.542;2022-12-01T06:30:23;13.50;;;4.68;;
46042;SDS011;32533;-33.854;18.542;2022-12-01T06:32:50;10.52;;;3.70;;
46042;SDS011;32533;-33.854;18.542;2022-12-01T06:35:17;12.93;;;3.83;;
46042;SDS011;32533;-33.854;18.542;2022-12-01T06:37:44;8.90;;;2.97;;
46042;SDS011;32533;-33.854;18.542;2022-12-01T06:40:10;12.48;;;4.72;;
46042;SDS011;32533;-33.854;18.542;2022-12-01T06:42:37;17.98;;;6.63;;
46042;SDS011;32533;-33.854;18.542;2022-12-01T06:45:04;11.68;;;4.68;;
46042;SDS011;32533;-33.854;18.542;2022-12-01T06:47:31;10.38;;;4.65;;
46042;SDS011;32533;-33.854;18.542;2022-12-01T06:49:57;14.07;;;4.70;;
46042;SDS011;32533;-33.854;18.542;2022-12-01T06:52:24;20.05;;;5.10;;
46042;SDS011;32533;-33.854;18.542;2022-12-01T06:54:50;9.27;;;3.97;;
46042;SDS011;32533;-33.854;18.542;2022-12-01T06:57:17;10.73;;;4.97;;
46042;SDS011;32533;-33.854;18.542;2022-12-01T06:59:43;9.15;;;4.28;;
46042;SDS011;32533;-33.854;18.542;2022-12-01T07:02:10;7.40;;;3.25;;
46042;SDS011;32533;-33.854;18.542;2022-12-01T07:04:37;11.50;;;3.17;;
46042;SDS011;32533;-33.854;18.542;2022-12-01T07:07:04;8.65;;;2.92;;
46042;SDS011;32533;-33.854;18.542;2022-12-01T07:09:31;17.30;;;3.67;;
46042;SDS011;32533;-33.854;18.542;2022-12-01T07:11:57;7.88;;;2.85;;
46042;SDS011;32533;-33.854;18.542;2022-12-01T07:14:24;10.32;;;3.20;;
46042;SDS011;32533;-33.854;18.542;2022-12-01T07:16:51;8.75;;;3.53;;
46042;SDS011;32533;-33.854;18.542;2022-12-01T07:19:18;8.82;;;3.28;;
46042;SDS011;32533;-33.854;18.542;2022-12-01T07:21:45;9.13;;;2.90;;
46042;SDS011;32533;-33.854;18.542;2022-12-01T07:24:11;10.10;;;2.80;;
46042;SDS011;32533;-33.854;18.542;2022-12-01T07:26:38;15.52;;;4.22;;
46042;SDS011;32533;-33.854;18.542;2022-12-01T07:29:06;9.18;;;3.38;;
46042;SDS011;32533;-33.854;18.542;2022-12-01T07:31:33;14.93;;;4.18;;
46042;SDS011;32533;-33.854;18.542;2022-12-01T07:34:01;11.57;;;4.13;;
46042;SDS011;32533;-33.854;18.542;2022-12-01T07:36:27;11.63;;;5.00;;
46042;SDS011;32533;-33.854;18.542;2022-12-01T07:38:54;12.07;;;4.28;;
46042;SDS011;32533;-33.854;18.542;2022-12-01T07:41:20;12.07;;;4.82;;
46042;SDS011;32533;-33.854;18.542;2022-12-01T07:43:47;9.65;;;2.80;;
46042;SDS011;32533;-33.854;18.542;2022-12-01T07:46:15;9.13;;;3.47;;
46042;SDS011;32533;-33.854;18.542;2022-12-01T07:48:43;10.80;;;3.22;;
46042;SDS011;32533;-33.854;18.542;2022-12-01T07:51:10;7.05;;;3.30;;
46042;SDS011;32533;-33.854;18.542;2022-12-01T07:53:41;16.40;;;3.45;;
46042;SDS011;32533;-33.854;18.542;2022-12-01T07:56:11;11.07;;;3.50;;
46042;SDS011;32533;-33.854;18.542;2022-12-01T07:58:38;7.38;;;3.47;;
46042;SDS011;32533;-33.854;18.542;2022-12-01T08:01:07;5.72;;;2.55;;
46042;SDS011;32533;-33.854;18.542;2022-12-01T08:03:37;7.20;;;2.78;;
46042;SDS011;32533;-33.854;18.542;2022-12-01T08:06:04;7.38;;;3.70;;
46042;SDS011;32533;-33.854;18.542;2022-12-01T08:08:32;6.97;;;2.50;;
46042;SDS011;32533;-33.854;18.542;2022-12-01T08:11:02;10.32;;;4.53;;
46042;SDS011;32533;-33.854;18.542;2022-12-01T08:13:30;9.52;;;4.03;;
46042;SDS011;32533;-33.854;18.542;2022-12-01T08:15:57;5.13;;;2.70;;
46042;SDS011;32533;-33.854;18.542;2022-12-01T08:18:23;5.22;;;2.30;;
46042;SDS011;32533;-33.854;18.542;2022-12-01T08:20:50;8.00;;;3.55;;
46042;SDS011;32533;-33.854;18.542;2022-12-01T08:23:20;6.80;;;2.65;;
46042;SDS011;32533;-33.854;18.542;2022-12-01T08:25:47;12.23;;;3.50;;
46042;SDS011;32533;-33.854;18.542;2022-12-01T08:28:13;6.45;;;2.20;;
46042;SDS011;32533;-33.854;18.542;2022-12-01T08:30:40;5.28;;;2.50;;
46042;SDS011;32533;-33.854;18.542;2022-12-01T08:33:06;6.13;;;2.13;;
46042;SDS011;32533;-33.854;18.542;2022-12-01T08:35:34;11.00;;;3.35;;
46042;SDS011;32533;-33.854;18.542;2022-12-01T08:38:01;7.93;;;3.05;;
46042;SDS011;32533;-33.854;18.542;2022-12-01T08:40:28;6.22;;;2.35;;
46042;SDS011;32533;-33.854;18.542;2022-12-01T08:42:55;7.50;;;3.97;;
46042;SDS011;32533;-33.854;18.542;2022-12-01T08:45:22;5.40;;;2.97;;
46042;SDS011;32533;-33.854;18.542;2022-12-01T08:47:49;6.68;;;2.53;;
46042;SDS011;32533;-33.854;18.542;2022-12-01T08:50:17;7.07;;;2.00;;
46042;SDS011;32533;-33.854;18.542;2022-12-01T08:52:44;14.85;;;5.43;;
46042;SDS011;32533;-33.854;18.542;2022-12-01T08:55:10;4.43;;;2.53;;
46042;SDS011;32533;-33.854;18.542;2022-12-01T08:57:37;4.95;;;2.15;;
46042;SDS011;32533;-33.854;18.542;2022-12-01T09:00:03;6.60;;;3.03;;
46042;SDS011;32533;-33.854;18.542;2022-12-01T09:02:30;6.10;;;2.08;;
46042;SDS011;32533;-33.854;18.542;2022-12-01T09:04:57;7.82;;;2.33;;
46042;SDS011;32533;-33.854;18.542;2022-12-01T09:07:23;6.15;;;3.25;;
46042;SDS011;32533;-33.854;18.542;2022-12-01T09:09:50;6.30;;;2.20;;
46042;SDS011;32533;-33.854;18.542;2022-12-01T09:12:16;9.88;;;2.42;;
46042;SDS011;32533;-33.854;18.542;2022-12-01T09:14:43;4.55;;;2.90;;
46042;SDS011;32533;-33.854;18.542;2022-12-01T09:17:14;6.00;;;2.90;;
46042;SDS011;32533;-33.854;18.542;2022-12-01T09:19:42;3.80;;;2.35;;
46042;SDS011;32533;-33.854;18.542;2022-12-01T09:22:09;15.82;;;4.07;;
46042;SDS011;32533;-33.854;18.542;2022-12-01T09:24:37;7.20;;;3.00;;
46042;SDS011;32533;-33.854;18.542;2022-12-01T09:27:04;5.22;;;2.67;;
46042;SDS011;32533;-33.854;18.542;2022-12-01T09:29:30;5.75;;;3.28;;
46042;SDS011;32533;-33.854;18.542;2022-12-01T09:31:57;13.40;;;4.20;;
46042;SDS011;32533;-33.854;18.542;2022-12-01T09:34:25;9.55;;;2.83;;
46042;SDS011;32533;-33.854;18.542;2022-12-01T09:36:54;3.85;;;2.30;;
46042;SDS011;32533;-33.854;18.542;2022-12-01T09:39:22;4.45;;;2.08;;
46042;SDS011;32533;-33.854;18.542;2022-12-01T09:46:49;16.25;;;3.55;;
46042;SDS011;32533;-33.854;18.542;2022-12-01T09:49:24;6.38;;;2.50;;
46042;SDS011;32533;-33.854;18.542;2022-12-01T09:52:02;6.53;;;2.45;;
46042;SDS011;32533;-33.854;18.542;2022-12-01T09:54:29;7.32;;;2.35;;
46042;SDS011;32533;-33.854;18.542;2022-12-01T09:56:55;7.70;;;2.30;;
46042;SDS011;32533;-33.854;18.542;2022-12-01T09:59:26;6.20;;;2.92;;
46042;SDS011;32533;-33.854;18.542;2022-12-01T10:02:00;7.90;;;2.43;;
46042;SDS011;32533;-33.854;18.542;2022-12-01T10:04:36;12.65;;;2.75;;
46042;SDS011;32533;-33.854;18.542;2022-12-01T10:09:58;4.47;;;1.90;;
46042;SDS011;32533;-33.854;18.542;2022-12-01T10:12:32;5.28;;;2.80;;
46042;SDS011;32533;-33.854;18.542;2022-12-01T10:15:49;5.78;;;2.35;;
46042;SDS011;32533;-33.854;18.542;2022-12-01T10:20:43;3.65;;;2.13;;
46042;SDS011;32533;-33.854;18.542;2022-12-01T10:23:14;6.38;;;2.13;;
46042;SDS011;32533;-33.854;18.542;2022-12-01T10:26:12;13.48;;;2.88;;
46042;SDS011;32533;-33.854;18.542;2022-12-01T10:34:27;7.18;;;2.80;;
46042;SDS011;32533;-33.854;18.542;2022-12-01T10:36:58;9.75;;;3.33;;
46042;SDS011;32533;-33.854;18.542;2022-12-01T10:39:38;4.80;;;2.38;;
46042;SDS011;32533;-33.854;18.542;2022-12-01T10:44:39;6.43;;;2.13;;
46042;SDS011;32533;-33.854;18.542;2022-12-01T10:47:39;4.43;;;2.20;;
46042;SDS011;32533;-33.854;18.542;2022-12-01T10:49:59;4.97;;;2.05;;
46042;SDS011;32533;-33.854;18.542;2022-12-01T10:52:37;6.28;;;2.88;;
46042;SDS011;32533;-33.854;18.542;2022-12-01T10:55:27;4.00;;;2.03;;
46042;SDS011;32533;-33.854;18.542;2022-12-01T10:57:54;7.93;;;2.53;;
46042;SDS011;32533;-33.854;18.542;2022-12-01T11:00:27;4.85;;;2.40;;
46042;SDS011;32533;-33.854;18.542;2022-12-01T11:03:00;4.82;;;1.88;;
46042;SDS011;32533;-33.854;18.542;2022-12-01T11:05:38;8.27;;;2.25;;
46042;SDS011;32533;-33.854;18.542;2022-12-01T11:08:17;4.82;;;2.42;;
46042;SDS011;32533;-33.854;18.542;2022-12-01T11:10:47;7.13;;;1.80;;
46042;SDS011;32533;-33.854;18.542;2022-12-01T11:13:18;4.00;;;1.65;;
46042;SDS011;32533;-33.854;18.542;2022-12-01T11:15:59;7.40;;;3.55;;
46042;SDS011;32533;-33.854;18.542;2022-12-01T11:18:30;12.90;;;2.08;;
46042;SDS011;32533;-33.854;18.542;2022-12-01T11:23:53;7.82;;;2.60;;
46042;SDS011;32533;-33.854;18.542;2022-12-01T11:26:22;4.43;;;2.22;;
46042;SDS011;32533;-33.854;18.542;2022-12-01T11:28:53;4.30;;;2.33;;
46042;SDS011;32533;-33.854;18.542;2022-12-01T11:31:21;6.30;;;2.40;;
46042;SDS011;32533;-33.854;18.542;2022-12-01T11:34:00;4.70;;;2.15;;
46042;SDS011;32533;-33.854;18.542;2022-12-01T11:36:32;8.43;;;1.85;;
46042;SDS011;32533;-33.854;18.542;2022-12-01T11:39:16;7.45;;;2.67;;
46042;SDS011;32533;-33.854;18.542;2022-12-01T11:41:46;5.22;;;2.38;;
46042;SDS011;32533;-33.854;18.542;2022-12-01T11:44:16;6.97;;;3.28;;
46042;SDS011;32533;-33.854;18.542;2022-12-01T11:46:44;5.15;;;2.47;;
46042;SDS011;32533;-33.854;18.542;2022-12-01T11:49:16;4.28;;;1.63;;
46042;SDS011;32533;-33.854;18.542;2022-12-01T11:51:45;3.75;;;2.13;;
46042;SDS011;32533;-33.854;18.542;2022-12-01T11:56:51;8.98;;;2.08;;
46042;SDS011;32533;-33.854;18.542;2022-12-01T11:59:23;3.22;;;1.75;;
46042;SDS011;32533;-33.854;18.542;2022-12-01T12:02:04;4.57;;;2.60;;
46042;SDS011;32533;-33.854;18.542;2022-12-01T12:04:58;6.45;;;1.70;;
46042;SDS011;32533;-33.854;18.542;2022-12-01T12:13:21;5.50;;;1.73;;
46042;SDS011;32533;-33.854;18.542;2022-12-01T12:15:55;7.63;;;3.00;;
46042;SDS011;32533;-33.854;18.542;2022-12-01T12:27:20;9.77;;;2.95;;
46042;SDS011;32533;-33.854;18.542;2022-12-01T12:38:38;8.13;;;2.05;;
46042;SDS011;32533;-33.854;18.542;2022-12-01T12:42:05;8.18;;;2.38;;
46042;SDS011;32533;-33.854;18.542;2022-12-01T12:44:28;10.38;;;2.80;;
46042;SDS011;32533;-33.854;18.542;2022-12-01T12:47:22;10.65;;;2.90;;
46042;SDS011;32533;-33.854;18.542;2022-12-01T12:52:43;5.72;;;2.67;;
46042;SDS011;32533;-33.854;18.542;2022-12-01T12:55:58;10.32;;;1.95;;
46042;SDS011;32533;-33.854;18.542;2022-12-01T12:58:07;7.53;;;1.90;;
46042;SDS011;32533;-33.854;18.542;2022-12-01T13:00:35;6.18;;;2.22;;
46042;SDS011;32533;-33.854;18.542;2022-12-01T13:06:04;13.73;;;5.18;;
46042;SDS011;32533;-33.854;18.542;2022-12-01T13:09:02;6.43;;;2.65;;
46042;SDS011;32533;-33.854;18.542;2022-12-01T13:16:46;12.02;;;2.70;;
46042;SDS011;32533;-33.854;18.542;2022-12-01T13:19:18;5.13;;;2.10;;
46042;SDS011;32533;-33.854;18.542;2022-12-01T13:21:57;9.00;;;2.80;;
46042;SDS011;32533;-33.854;18.542;2022-12-01T13:24:26;6.97;;;2.63;;
46042;SDS011;32533;-33.854;18.542;2022-12-01T13:29:24;8.88;;;2.40;;
46042;SDS011;32533;-33.854;18.542;2022-12-01T13:31:53;3.63;;;1.95;;
46042;SDS011;32533;-33.854;18.542;2022-12-01T13:34:24;5.07;;;1.90;;
46042;SDS011;32533;-33.854;18.542;2022-12-01T13:36:59;5.55;;;2.53;;
46042;SDS011;32533;-33.854;18.542;2022-12-01T13:39:26;7.18;;;2.10;;
46042;SDS011;32533;-33.854;18.542;2022-12-01T13:47:02;8.80;;;3.10;;
46042;SDS011;32533;-33.854;18.542;2022-12-01T13:49:50;5.13;;;2.08;;
46042;SDS011;32533;-33.854;18.542;2022-12-01T14:02:27;5.32;;;2.72;;
46042;SDS011;32533;-33.854;18.542;2022-12-01T14:07:49;8.10;;;1.92;;
46042;SDS011;32533;-33.854;18.542;2022-12-01T14:10:22;6.72;;;1.42;;
46042;SDS011;32533;-33.854;18.542;2022-12-01T14:12:51;6.97;;;2.28;;
46042;SDS011;32533;-33.854;18.542;2022-12-01T14:18:00;6.47;;;1.83;;
46042;SDS011;32533;-33.854;18.542;2022-12-01T14:20:31;7.53;;;3.22;;
46042;SDS011;32533;-33.854;18.542;2022-12-01T14:26:16;7.03;;;1.73;;
46042;SDS011;32533;-33.854;18.542;2022-12-01T14:39:32;6.93;;;1.60;;
46042;SDS011;32533;-33.854;18.542;2022-12-01T14:42:24;6.18;;;2.65;;
46042;SDS011;32533;-33.854;18.542;2022-12-01T14:45:14;5.43;;;1.90;;
46042;SDS011;32533;-33.854;18.542;2022-12-01T14:47:45;3.70;;;1.30;;
46042;SDS011;32533;-33.854;18.542;2022-12-01T14:53:48;4.15;;;1.65;;
46042;SDS011;32533;-33.854;18.542;2022-12-01T14:55:55;7.32;;;2.10;;
46042;SDS011;32533;-33.854;18.542;2022-12-01T14:58:53;5.90;;;1.73;;
46042;SDS011;32533;-33.854;18.542;2022-12-01T15:01:21;3.88;;;2.13;;
46042;SDS011;32533;-33.854;18.542;2022-12-01T15:03:55;6.30;;;1.85;;
46042;SDS011;32533;-33.854;18.542;2022-12-01T15:06:24;8.80;;;2.23;;
46042;SDS011;32533;-33.854;18.542;2022-12-01T15:11:52;7.20;;;2.05;;
46042;SDS011;32533;-33.854;18.542;2022-12-01T15:14:32;4.60;;;1.35;;
46042;SDS011;32533;-33.854;18.542;2022-12-01T15:17:00;3.08;;;1.38;;
46042;SDS011;32533;-33.854;18.542;2022-12-01T15:19:36;6.13;;;2.35;;
46042;SDS011;32533;-33.854;18.542;2022-12-01T15:22:06;8.10;;;2.38;;
46042;SDS011;32533;-33.854;18.542;2022-12-01T15:24:39;3.88;;;1.52;;
46042;SDS011;32533;-33.854;18.542;2022-12-01T15:27:33;8.32;;;1.90;;
46042;SDS011;32533;-33.854;18.542;2022-12-01T15:29:59;3.85;;;1.67;;
46042;SDS011;32533;-33.854;18.542;2022-12-01T15:32:29;4.57;;;2.00;;
46042;SDS011;32533;-33.854;18.542;2022-12-01T15:34:57;6.68;;;2.38;;
46042;SDS011;32533;-33.854;18.542;2022-12-01T15:37:27;4.72;;;1.50;;
46042;SDS011;32533;-33.854;18.542;2022-12-01T15:40:07;4.55;;;3.03;;
46042;SDS011;32533;-33.854;18.542;2022-12-01T15:42:39;5.55;;;2.33;;
46042;SDS011;32533;-33.854;18.542;2022-12-01T15:47:43;3.58;;;1.27;;
46042;SDS011;32533;-33.854;18.542;2022-12-01T15:50:25;4.10;;;1.23;;
46042;SDS011;32533;-33.854;18.542;2022-12-01T15:52:55;3.45;;;1.23;;
46042;SDS011;32533;-33.854;18.542;2022-12-01T15:55:29;5.03;;;2.42;;
46042;SDS011;32533;-33.854;18.542;2022-12-01T15:57:58;6.57;;;1.60;;
46042;SDS011;32533;-33.854;18.542;2022-12-01T16:00:26;11.20;;;6.38;;
46042;SDS011;32533;-33.854;18.542;2022-12-01T18:17:26;8.98;;;2.35;;
46042;SDS011;32533;-33.854;18.542;2022-12-01T18:19:53;7.85;;;3.28;;
46042;SDS011;32533;-33.854;18.542;2022-12-01T18:22:19;10.13;;;2.38;;
46042;SDS011;32533;-33.854;18.542;2022-12-01T18:24:46;8.73;;;2.15;;
46042;SDS011;32533;-33.854;18.542;2022-12-01T18:27:13;4.55;;;1.70;;
46042;SDS011;32533;-33.854;18.542;2022-12-01T18:29:40;5.20;;;1.45;;
46042;SDS011;32533;-33.854;18.542;2022-12-01T18:32:06;2.05;;;1.27;;
46042;SDS011;32533;-33.854;18.542;2022-12-01T18:34:33;3.25;;;1.55;;
46042;SDS011;32533;-33.854;18.542;2022-12-01T18:37:00;2.80;;;1.40;;
46042;SDS011;32533;-33.854;18.542;2022-12-01T18:39:27;6.30;;;1.80;;
46042;SDS011;32533;-33.854;18.542;2022-12-01T18:41:54;2.15;;;1.70;;
46042;SDS011;32533;-33.854;18.542;2022-12-01T18:44:21;1.48;;;0.95;;
46042;SDS011;32533;-33.854;18.542;2022-12-01T18:46:47;1.67;;;0.93;;
46042;SDS011;32533;-33.854;18.542;2022-12-01T18:49:14;3.80;;;1.30;;
46042;SDS011;32533;-33.854;18.542;2022-12-01T18:51:41;2.80;;;1.65;;
46042;SDS011;32533;-33.854;18.542;2022-12-01T18:54:09;1.90;;;1.25;;
46042;SDS011;32533;-33.854;18.542;2022-12-01T18:56:38;1.63;;;1.20;;
46042;SDS011;32533;-33.854;18.542;2022-12-01T18:59:05;3.30;;;0.88;;
46042;SDS011;32533;-33.854;18.542;2022-12-01T19:01:35;2.45;;;1.70;;
46042;SDS011;32533;-33.854;18.542;2022-12-01T19:04:03;5.22;;;1.00;;
46042;SDS011;32533;-33.854;18.542;2022-12-01T19:06:34;3.70;;;0.98;;
46042;SDS011;32533;-33.854;18.542;2022-12-01T19:09:15;5.70;;;2.25;;
46042;SDS011;32533;-33.854;18.542;2022-12-01T19:11:42;1.10;;;0.80;;
46042;SDS011;32533;-33.854;18.542;2022-12-01T19:14:25;2.08;;;0.75;;